Time;durP1;ratioP1;P1;durP2;ratioP2;P2;SDS_P1;SDS_P2;PMS_P1;PMS_P2;Temp;Humidity;BMP_temperature;BMP_pressure;BME280_temperature;BME280_humidity;BME280_pressure;Samples;Min_cycle;Max_cycle;Signal;HPM_P1;HPM_P2
2023/07/06 00:01:04;;;;;;;2.90;2.70;;;19.10;92.00;;;;;;5014705;28;20460;-70
2023/07/06 00:03:33;;;;;;;3.60;2.90;;;18.90;92.40;;;;;;5033376;28;20221;-71
2023/07/06 00:06:00;;;;;;;2.90;2.20;;;18.90;92.10;;;;;;5010160;28;20470;-71
2023/07/06 00:08:27;;;;;;;3.67;2.20;;;18.90;92.10;;;;;;5036099;28;20463;-70
2023/07/06 00:10:53;;;;;;;2.47;2.20;;;18.90;92.30;;;;;;5031584;28;20530;-70
2023/07/06 00:13:23;;;;;;;3.67;2.53;;;19.00;92.00;;;;;;5032762;28;20484;-70
2023/07/06 00:15:50;;;;;;;2.93;2.20;;;19.00;91.90;;;;;;5033193;28;20483;-71
2023/07/06 00:18:17;;;;;;;3.13;2.83;;;18.90;91.90;;;;;;5031988;28;20984;-70
2023/07/06 00:20:43;;;;;;;2.87;2.10;;;18.90;92.00;;;;;;5012669;28;20471;-71
2023/07/06 00:23:10;;;;;;;2.43;2.10;;;18.90;92.00;;;;;;5032996;28;20463;-69
2023/07/06 00:25:38;;;;;;;2.83;2.43;;;18.90;92.00;;;;;;5035523;28;20256;-71
2023/07/06 00:28:04;;;;;;;2.97;2.77;;;18.80;92.20;;;;;;5034053;28;20458;-71
2023/07/06 00:33:19;;;;;;;4.70;2.20;;;18.60;92.60;;;;;;5037594;28;20454;-70
2023/07/06 00:35:47;;;;;;;4.97;2.67;;;18.70;92.40;;;;;;5016550;28;20496;-69
2023/07/06 00:38:15;;;;;;;2.97;2.67;;;18.70;92.50;;;;;;5030034;28;20475;-70
2023/07/06 00:40:44;;;;;;;3.23;2.50;;;18.70;92.40;;;;;;5024122;28;20839;-70
2023/07/06 00:43:30;;;;;;;3.23;2.87;;;18.60;92.40;;;;;;5033799;28;20527;-71
2023/07/06 00:46:01;;;;;;;3.37;2.50;;;18.60;92.40;;;;;;5025810;28;21368;-70
2023/07/06 00:48:31;;;;;;;2.47;2.27;;;18.50;92.60;;;;;;5023844;28;20547;-70
2023/07/06 00:51:13;;;;;;;3.30;1.90;;;18.40;92.80;;;;;;5016704;28;20501;-70
2023/07/06 00:53:41;;;;;;;3.83;2.60;;;18.40;92.70;;;;;;5026954;28;20506;-71
2023/07/06 00:56:10;;;;;;;3.00;2.53;;;18.40;92.50;;;;;;5033462;28;20843;-70
2023/07/06 00:58:43;;;;;;;2.70;2.50;;;18.50;92.50;;;;;;5028724;28;20513;-70
2023/07/06 01:01:11;;;;;;;5.43;2.37;;;18.40;92.50;;;;;;5031929;28;20522;-70
2023/07/06 01:03:46;;;;;;;2.30;2.03;;;18.40;92.50;;;;;;5033463;28;20467;-70
2023/07/06 01:06:17;;;;;;;2.23;2.13;;;18.40;92.70;;;;;;5036386;28;21023;-70
2023/07/06 01:08:43;;;;;;;2.53;2.17;;;18.30;92.60;;;;;;5035421;28;20505;-70
2023/07/06 01:11:09;;;;;;;2.20;1.93;;;18.30;92.50;;;;;;5025352;28;20503;-70
2023/07/06 01:13:36;;;;;;;2.97;2.43;;;18.30;92.60;;;;;;5020009;28;20220;-70
2023/07/06 01:16:14;;;;;;;2.13;1.93;;;18.20;92.50;;;;;;5026574;28;20476;-71
2023/07/06 01:18:43;;;;;;;2.30;2.10;;;18.20;92.60;;;;;;5030626;28;20557;-68
2023/07/06 01:21:11;;;;;;;2.87;2.20;;;18.20;92.80;;;;;;5050773;28;20551;-70
2023/07/06 01:23:45;;;;;;;2.60;2.40;;;18.20;92.70;;;;;;5014380;28;20479;-70
2023/07/06 01:26:12;;;;;;;2.20;2.00;;;18.20;92.60;;;;;;5016678;28;20455;-70
2023/07/06 01:29:10;;;;;;;3.70;2.37;;;18.00;92.70;;;;;;5036011;28;20470;-70
2023/07/06 01:31:44;;;;;;;2.67;2.43;;;18.00;93.20;;;;;;5035402;28;20943;-71
2023/07/06 01:34:12;;;;;;;2.83;2.40;;;18.10;92.70;;;;;;5029583;28;20868;-69
2023/07/06 01:37:22;;;;;;;2.47;2.27;;;18.10;92.70;;;;;;5026921;28;20919;-70
2023/07/06 01:39:48;;;;;;;2.67;2.10;;;18.00;92.60;;;;;;5031738;28;20470;-70
2023/07/06 01:42:34;;;;;;;2.30;2.07;;;18.10;92.70;;;;;;5036622;28;20443;-70
2023/07/06 01:45:21;;;;;;;2.50;2.30;;;18.10;92.70;;;;;;5030570;28;20464;-70
2023/07/06 01:47:52;;;;;;;2.10;1.90;;;18.10;92.70;;;;;;5018567;28;20455;-71
2023/07/06 01:50:22;;;;;;;4.10;1.80;;;18.10;92.90;;;;;;5034512;28;20455;-71
2023/07/06 01:53:12;;;;;;;2.60;1.83;;;18.10;93.00;;;;;;5026517;28;20455;-70
2023/07/06 01:56:01;;;;;;;2.30;2.10;;;18.10;92.60;;;;;;5031827;28;20456;-69
2023/07/06 01:59:02;;;;;;;3.20;2.60;;;18.10;92.60;;;;;;5036582;28;20483;-70
2023/07/06 02:01:47;;;;;;;2.60;2.40;;;18.00;92.70;;;;;;5026818;28;21085;-70
2023/07/06 02:04:13;;;;;;;2.20;2.10;;;18.00;92.80;;;;;;5033050;28;20851;-70
2023/07/06 02:06:39;;;;;;;2.87;2.40;;;18.00;92.80;;;;;;5032714;28;20471;-70
2023/07/06 02:09:06;;;;;;;2.50;2.30;;;17.90;92.90;;;;;;5031729;28;20462;-70
2023/07/06 02:11:34;;;;;;;4.97;2.70;;;17.80;92.90;;;;;;5037394;28;20479;-71
2023/07/06 02:13:59;;;;;;;2.40;2.10;;;17.80;93.10;;;;;;5027697;28;20516;-69
2023/07/06 02:16:26;;;;;;;2.50;2.30;;;17.80;93.40;;;;;;5033318;28;20463;-70
2023/07/06 02:18:53;;;;;;;3.80;1.93;;;17.80;93.00;;;;;;5016890;28;20224;-69
2023/07/06 02:21:19;;;;;;;2.07;1.90;;;17.70;92.90;;;;;;5036864;28;20473;-70
2023/07/06 02:23:45;;;;;;;2.30;2.10;;;17.70;93.30;;;;;;5021820;28;20479;-69
2023/07/06 02:26:12;;;;;;;4.83;3.10;;;17.60;93.00;;;;;;5035850;28;20231;-70
2023/07/06 02:28:38;;;;;;;2.50;2.30;;;17.50;93.30;;;;;;5010828;28;20474;-70
2023/07/06 02:31:04;;;;;;;2.70;2.50;;;17.50;93.50;;;;;;5033129;28;20459;-70
2023/07/06 02:33:33;;;;;;;7.20;2.77;;;17.40;93.50;;;;;;5021779;28;20709;-70
2023/07/06 02:35:59;;;;;;;2.17;2.00;;;17.40;93.40;;;;;;5012794;28;20462;-70
2023/07/06 02:38:25;;;;;;;2.80;2.43;;;17.40;93.40;;;;;;5030146;28;20845;-70
2023/07/06 02:40:50;;;;;;;2.97;2.70;;;17.40;93.40;;;;;;5027308;28;20224;-70
2023/07/06 02:43:16;;;;;;;2.87;2.23;;;17.40;93.50;;;;;;5034839;28;20239;-70
2023/07/06 02:45:47;;;;;;;3.03;2.80;;;17.30;93.50;;;;;;5029339;28;20228;-70
2023/07/06 02:48:13;;;;;;;2.77;2.47;;;17.20;93.60;;;;;;5032903;28;20225;-70
2023/07/06 02:50:38;;;;;;;2.90;2.50;;;17.00;93.80;;;;;;5011772;28;20531;-70
2023/07/06 02:53:04;;;;;;;2.70;2.23;;;17.10;93.90;;;;;;5020266;28;20579;-69
2023/07/06 02:55:32;;;;;;;2.30;2.10;;;17.20;93.90;;;;;;5024691;28;20366;-70
2023/07/06 02:57:58;;;;;;;2.33;2.10;;;17.10;93.70;;;;;;5019059;28;20232;-70
2023/07/06 03:00:24;;;;;;;4.33;2.20;;;17.10;93.80;;;;;;5021244;28;20521;-70
2023/07/06 03:02:51;;;;;;;2.83;2.13;;;17.00;93.90;;;;;;5014353;28;20524;-71
2023/07/06 03:05:22;;;;;;;2.83;2.57;;;17.10;93.90;;;;;;5031224;28;20464;-70
2023/07/06 03:07:50;;;;;;;2.50;2.30;;;17.10;93.70;;;;;;5025632;28;20540;-70
2023/07/06 03:10:17;;;;;;;3.73;2.80;;;17.10;93.80;;;;;;5018956;28;20479;-70
2023/07/06 03:12:43;;;;;;;3.20;2.43;;;17.10;93.60;;;;;;5016935;28;20466;-70
2023/07/06 03:15:10;;;;;;;3.03;2.50;;;17.20;93.60;;;;;;5018973;28;20467;-70
2023/07/06 03:17:38;;;;;;;3.53;2.53;;;17.20;93.60;;;;;;5014695;28;20224;-69
2023/07/06 03:20:13;;;;;;;3.30;2.70;;;17.20;93.60;;;;;;5027805;28;20466;-69
2023/07/06 03:22:40;;;;;;;5.90;2.53;;;17.20;93.50;;;;;;5028257;28;20983;-70
2023/07/06 03:25:09;;;;;;;2.43;2.23;;;17.10;93.50;;;;;;5010192;28;20470;-69
2023/07/06 03:27:36;;;;;;;3.37;2.10;;;17.10;93.30;;;;;;5028347;28;20512;-70
2023/07/06 03:30:04;;;;;;;3.03;2.30;;;17.10;93.40;;;;;;5014103;28;20444;-70
2023/07/06 03:32:35;;;;;;;2.70;2.40;;;16.90;93.60;;;;;;5034748;28;20451;-69
2023/07/06 03:35:01;;;;;;;2.07;1.90;;;16.80;93.70;;;;;;5036340;28;20457;-70
2023/07/06 03:37:29;;;;;;;2.53;2.33;;;16.70;93.80;;;;;;5039516;28;20474;-70
2023/07/06 03:39:54;;;;;;;2.90;2.33;;;16.80;94.10;;;;;;5030243;28;20209;-69
2023/07/06 03:42:21;;;;;;;2.20;2.03;;;16.90;94.10;;;;;;5017457;28;20466;-69
2023/07/06 03:44:46;;;;;;;4.23;2.37;;;16.90;93.90;;;;;;5029090;28;20283;-70
2023/07/06 03:47:13;;;;;;;3.20;2.90;;;16.90;93.90;;;;;;5031589;28;20538;-69
2023/07/06 03:49:39;;;;;;;6.10;2.77;;;16.90;93.90;;;;;;5029085;28;20213;-70
2023/07/06 03:52:06;;;;;;;3.60;2.00;;;16.80;93.80;;;;;;5035875;28;20492;-70
2023/07/06 03:54:33;;;;;;;2.57;2.17;;;16.80;94.30;;;;;;5034890;28;20270;-71
2023/07/06 03:56:59;;;;;;;2.93;2.20;;;16.80;93.60;;;;;;5035097;28;20570;-69
2023/07/06 03:59:24;;;;;;;2.77;2.33;;;16.90;93.80;;;;;;5037599;28;20598;-68
2023/07/06 04:01:50;;;;;;;2.20;1.60;;;16.90;93.90;;;;;;5025433;28;20267;-69
2023/07/06 04:04:18;;;;;;;2.30;2.10;;;16.80;93.80;;;;;;5017560;28;20253;-69
2023/07/06 04:06:43;;;;;;;2.77;2.33;;;16.80;93.90;;;;;;5029302;28;20761;-69
2023/07/06 04:09:10;;;;;;;3.10;2.60;;;16.80;93.90;;;;;;5034575;28;20479;-70
2023/07/06 04:11:36;;;;;;;3.33;2.40;;;16.80;93.90;;;;;;5040446;28;20216;-70
2023/07/06 04:14:03;;;;;;;2.87;2.40;;;16.80;93.80;;;;;;5020265;28;20798;-70
2023/07/06 04:16:29;;;;;;;2.40;2.20;;;16.80;93.90;;;;;;5036088;28;20459;-71
2023/07/06 04:18:55;;;;;;;3.03;2.20;;;16.70;93.90;;;;;;5033263;28;20483;-70
2023/07/06 04:21:22;;;;;;;3.20;1.90;;;16.70;94.10;;;;;;5030106;28;20595;-70
2023/07/06 04:23:48;;;;;;;3.17;2.10;;;16.60;94.50;;;;;;5018588;28;20988;-70
2023/07/06 04:26:15;;;;;;;3.40;2.10;;;16.50;94.60;;;;;;5035446;28;20513;-70
2023/07/06 04:28:42;;;;;;;3.10;1.90;;;16.50;95.00;;;;;;5025945;28;20993;-69
2023/07/06 04:31:10;;;;;;;2.73;2.53;;;16.50;95.00;;;;;;5033129;28;20459;-69
2023/07/06 04:33:36;;;;;;;3.30;1.97;;;16.40;95.20;;;;;;5032688;28;21023;-69
2023/07/06 04:36:03;;;;;;;5.63;2.13;;;16.40;95.50;;;;;;5031427;28;20462;-70
2023/07/06 04:38:29;;;;;;;2.60;2.07;;;16.40;95.60;;;;;;5026258;28;20505;-70
2023/07/06 04:40:56;;;;;;;2.37;2.17;;;16.50;95.30;;;;;;5016057;28;20477;-70
2023/07/06 04:43:22;;;;;;;3.30;2.00;;;16.50;95.40;;;;;;5038085;28;20464;-69
2023/07/06 04:45:48;;;;;;;2.90;1.90;;;16.40;95.90;;;;;;5031037;28;20471;-70
2023/07/06 04:48:16;;;;;;;2.80;2.23;;;16.40;96.00;;;;;;5021208;28;20486;-69
2023/07/06 04:50:43;;;;;;;2.97;2.13;;;16.40;96.00;;;;;;5030246;28;20220;-69
2023/07/06 04:53:09;;;;;;;5.40;3.27;;;16.50;96.10;;;;;;5031938;28;20487;-70
2023/07/06 04:55:35;;;;;;;7.03;2.57;;;16.50;96.00;;;;;;5022120;28;20886;-69
2023/07/06 04:58:01;;;;;;;2.73;2.30;;;16.60;96.30;;;;;;5019053;28;21042;-70
2023/07/06 05:00:30;;;;;;;3.53;2.30;;;16.50;96.30;;;;;;5029073;28;20467;-69
2023/07/06 05:02:58;;;;;;;3.97;2.30;;;16.40;97.30;;;;;;5027694;28;20985;-70
2023/07/06 05:05:25;;;;;;;2.50;2.27;;;16.20;97.60;;;;;;5041814;28;20510;-69
2023/07/06 05:07:52;;;;;;;2.27;2.17;;;16.10;98.30;;;;;;5027415;28;20529;-68
2023/07/06 05:10:18;;;;;;;3.10;2.20;;;16.10;98.70;;;;;;5032783;28;20475;-68
2023/07/06 05:12:44;;;;;;;4.40;3.60;;;16.20;98.70;;;;;;5031178;28;20482;-70
2023/07/06 05:15:10;;;;;;;2.80;2.60;;;16.30;98.50;;;;;;5024394;28;20221;-69
2023/07/06 05:17:37;;;;;;;3.13;2.53;;;16.30;98.50;;;;;;5030613;28;20842;-70
2023/07/06 05:20:05;;;;;;;2.37;2.17;;;16.40;98.80;;;;;;5037704;28;20583;-69
2023/07/06 05:22:30;;;;;;;2.57;2.20;;;16.40;99.00;;;;;;5047867;28;20512;-70
2023/07/06 05:24:56;;;;;;;3.80;2.20;;;16.30;99.30;;;;;;5028375;28;20463;-70
2023/07/06 05:27:24;;;;;;;2.73;2.03;;;16.30;99.70;;;;;;5027232;28;20286;-70
2023/07/06 05:29:50;;;;;;;3.30;2.20;;;16.30;99.70;;;;;;5031876;28;20282;-70
2023/07/06 05:32:16;;;;;;;3.43;2.37;;;16.40;99.60;;;;;;5025721;28;20460;-69
2023/07/06 05:34:42;;;;;;;4.00;2.87;;;16.20;99.90;;;;;;5015376;28;21139;-69
2023/07/06 05:37:07;;;;;;;3.33;2.60;;;16.20;99.90;;;;;;5031070;28;20219;-70
2023/07/06 05:39:33;;;;;;;2.83;2.10;;;16.30;99.90;;;;;;5018932;28;20678;-70
2023/07/06 05:41:59;;;;;;;2.57;2.37;;;16.30;99.90;;;;;;5028875;28;20215;-70
2023/07/06 05:44:24;;;;;;;2.60;2.13;;;16.50;99.90;;;;;;5030911;28;20217;-69
2023/07/06 05:46:50;;;;;;;2.97;2.20;;;16.50;99.90;;;;;;5028099;28;20221;-69
2023/07/06 05:49:15;;;;;;;2.80;2.13;;;16.40;99.90;;;;;;5019916;28;20216;-69
2023/07/06 05:51:41;;;;;;;2.17;2.00;;;16.40;99.90;;;;;;5028289;28;20219;-70
2023/07/06 05:54:07;;;;;;;6.80;2.33;;;16.40;99.90;;;;;;5037277;28;20231;-69
2023/07/06 05:56:32;;;;;;;5.57;2.40;;;16.60;99.90;;;;;;5028787;28;20231;-70
2023/07/06 05:59:01;;;;;;;2.30;2.10;;;16.60;99.90;;;;;;5010423;28;20315;-70
2023/07/06 06:01:29;;;;;;;2.60;2.00;;;16.70;99.90;;;;;;5036024;28;20771;-69
2023/07/06 06:03:55;;;;;;;2.30;2.10;;;16.70;99.90;;;;;;5028520;28;20487;-69
2023/07/06 06:06:22;;;;;;;2.70;2.00;;;16.80;99.90;;;;;;5031422;28;20471;-70
2023/07/06 06:08:49;;;;;;;2.07;1.90;;;16.50;99.90;;;;;;5027950;28;20471;-71
2023/07/06 06:11:15;;;;;;;1.97;1.70;;;16.50;99.90;;;;;;5028754;28;20478;-70
2023/07/06 06:13:43;;;;;;;3.07;2.13;;;16.60;99.90;;;;;;5034359;28;20949;-69
2023/07/06 06:16:11;;;;;;;2.47;1.90;;;16.70;99.90;;;;;;5030654;28;20463;-70
2023/07/06 06:18:39;;;;;;;2.17;1.97;;;16.60;99.90;;;;;;5022477;28;20496;-69
2023/07/06 06:21:10;;;;;;;2.43;2.20;;;16.70;99.90;;;;;;5035934;28;20455;-70
2023/07/06 06:23:36;;;;;;;2.00;1.80;;;16.90;99.90;;;;;;5036899;28;20509;-69
2023/07/06 06:26:02;;;;;;;1.97;1.87;;;17.10;99.90;;;;;;5036686;28;20472;-69
2023/07/06 06:28:28;;;;;;;2.17;1.93;;;17.10;99.90;;;;;;5034947;28;20212;-68
2023/07/06 06:30:55;;;;;;;5.53;3.27;;;17.00;99.90;;;;;;5026351;28;20254;-70
2023/07/06 06:33:21;;;;;;;1.80;1.70;;;17.00;99.90;;;;;;5015832;28;20234;-70
2023/07/06 06:35:47;;;;;;;4.03;2.10;;;17.00;99.90;;;;;;5031000;28;20475;-70
2023/07/06 06:38:14;;;;;;;1.83;1.73;;;17.20;99.80;;;;;;5031244;28;20841;-69
2023/07/06 06:40:40;;;;;;;2.47;1.80;;;17.20;99.40;;;;;;5030457;28;20228;-69
2023/07/06 06:43:05;;;;;;;3.67;2.50;;;17.20;99.20;;;;;;5020770;28;20520;-69
2023/07/06 06:45:32;;;;;;;2.33;1.83;;;17.30;99.10;;;;;;5030023;28;20227;-69
2023/07/06 06:47:58;;;;;;;2.00;1.90;;;17.40;99.10;;;;;;5030853;28;20216;-70
2023/07/06 06:50:24;;;;;;;3.50;2.03;;;17.40;99.00;;;;;;5038840;28;20574;-70
2023/07/06 06:52:50;;;;;;;2.17;2.07;;;17.50;98.50;;;;;;5040832;28;21055;-69
2023/07/06 06:55:16;;;;;;;1.77;1.67;;;17.60;98.40;;;;;;5036352;28;20635;-69
2023/07/06 06:57:43;;;;;;;4.13;1.83;;;17.50;98.20;;;;;;5028255;28;20721;-69
2023/07/06 07:00:09;;;;;;;1.90;1.70;;;17.60;98.10;;;;;;5022864;28;20483;-70
2023/07/06 07:02:38;;;;;;;2.93;2.17;;;17.70;97.60;;;;;;5039923;28;20467;-70
2023/07/06 07:05:06;;;;;;;2.00;1.90;;;17.70;97.50;;;;;;5037792;28;20447;-69
2023/07/06 07:07:31;;;;;;;6.10;2.57;;;17.70;97.50;;;;;;5050815;28;20475;-70
2023/07/06 07:09:57;;;;;;;2.10;1.90;;;17.90;97.60;;;;;;5041128;28;20438;-70
2023/07/06 07:12:23;;;;;;;2.10;1.80;;;18.00;97.70;;;;;;5046288;28;20231;-70
2023/07/06 07:14:48;;;;;;;1.90;1.30;;;18.00;97.60;;;;;;5041023;28;20232;-70
2023/07/06 07:17:14;;;;;;;2.13;1.63;;;18.10;97.40;;;;;;5040869;28;20247;-70
2023/07/06 07:19:40;;;;;;;1.63;1.53;;;18.20;97.50;;;;;;5046928;28;20577;-70
2023/07/06 07:22:06;;;;;;;4.23;1.70;;;18.30;97.60;;;;;;5026513;28;20461;-69
2023/07/06 07:24:33;;;;;;;3.80;1.67;;;18.40;97.30;;;;;;5043600;28;20463;-70
2023/07/06 07:27:02;;;;;;;2.33;2.10;;;18.50;96.90;;;;;;5039845;28;20479;-70
2023/07/06 07:29:28;;;;;;;3.43;2.93;;;18.60;96.80;;;;;;5042586;28;20537;-70
2023/07/06 07:31:54;;;;;;;1.87;1.73;;;18.60;95.90;;;;;;5030895;28;20459;-69
2023/07/06 07:34:20;;;;;;;2.27;2.00;;;18.70;95.50;;;;;;5040433;28;20888;-69
2023/07/06 07:36:46;;;;;;;2.50;1.43;;;18.80;95.60;;;;;;5046492;28;20228;-70
2023/07/06 07:39:14;;;;;;;1.50;1.40;;;18.80;95.20;;;;;;5039727;28;20295;-70
2023/07/06 07:41:43;;;;;;;1.97;1.53;;;18.90;95.40;;;;;;5040957;28;20459;-70
2023/07/06 07:44:09;;;;;;;4.40;1.67;;;19.00;95.50;;;;;;5030415;28;20486;-70
2023/07/06 07:46:35;;;;;;;1.80;1.70;;;19.20;94.40;;;;;;5041464;28;20471;-71
2023/07/06 07:49:01;;;;;;;2.13;1.97;;;19.30;94.40;;;;;;5037191;28;20448;-70
2023/07/06 07:51:28;;;;;;;1.30;1.20;;;19.30;93.70;;;;;;5024244;28;20240;-70
2023/07/06 07:53:55;;;;;;;1.10;1.10;;;19.40;93.60;;;;;;5037847;28;20468;-70
2023/07/06 07:56:23;;;;;;;3.17;1.67;;;19.40;93.80;;;;;;5035956;28;20545;-70
2023/07/06 07:58:48;;;;;;;1.90;1.70;;;19.50;93.20;;;;;;5029164;28;20498;-70
2023/07/06 08:01:18;;;;;;;2.30;2.07;;;19.50;93.20;;;;;;5042921;28;20466;-71
2023/07/06 08:03:43;;;;;;;1.70;1.60;;;19.70;93.60;;;;;;5040413;28;20220;-70
2023/07/06 08:06:14;;;;;;;2.23;1.20;;;19.80;93.20;;;;;;5045392;28;20460;-70
2023/07/06 08:08:42;;;;;;;1.93;1.40;;;19.90;93.20;;;;;;5052838;28;20589;-71
2023/07/06 08:11:17;;;;;;;1.43;1.33;;;20.00;91.70;;;;;;5045483;28;20872;-70
2023/07/06 08:13:47;;;;;;;1.93;1.50;;;20.10;91.40;;;;;;5037033;28;20474;-71
2023/07/06 08:16:13;;;;;;;1.20;1.17;;;20.20;90.60;;;;;;5029506;28;20846;-71
2023/07/06 08:18:41;;;;;;;1.70;1.20;;;20.20;90.70;;;;;;5045838;28;20475;-71
2023/07/06 08:21:08;;;;;;;1.30;1.20;;;20.20;91.50;;;;;;5045779;28;20221;-71
2023/07/06 08:23:34;;;;;;;2.20;1.20;;;20.40;90.40;;;;;;5045142;28;20506;-71
2023/07/06 08:26:04;;;;;;;1.40;1.30;;;20.40;90.80;;;;;;5030899;28;20455;-71
2023/07/06 08:28:31;;;;;;;1.87;1.57;;;20.40;90.50;;;;;;5039383;28;22146;-70
2023/07/06 08:31:02;;;;;;;3.27;1.47;;;20.50;90.90;;;;;;5039896;28;20460;-71
2023/07/06 08:33:35;;;;;;;4.57;1.50;;;20.60;91.20;;;;;;5039660;28;20478;-71
2023/07/06 08:36:05;;;;;;;1.60;1.50;;;20.90;90.80;;;;;;5041121;28;20447;-71
2023/07/06 08:38:31;;;;;;;2.70;1.33;;;20.90;91.00;;;;;;5040805;28;20516;-70
2023/07/06 08:40:59;;;;;;;1.37;1.20;;;21.00;90.60;;;;;;5038572;28;20964;-71
2023/07/06 08:43:26;;;;;;;1.67;1.20;;;21.10;89.90;;;;;;5037953;28;20462;-71
2023/07/06 08:46:00;;;;;;;1.27;1.13;;;21.30;86.10;;;;;;5042069;28;20476;-70
2023/07/06 08:48:27;;;;;;;4.30;1.53;;;21.40;85.40;;;;;;5035124;28;20971;-71
2023/07/06 08:50:57;;;;;;;1.47;1.30;;;21.30;86.80;;;;;;5035870;28;20474;-71
2023/07/06 08:53:27;;;;;;;1.10;1.00;;;21.30;86.20;;;;;;5026063;28;20793;-71
2023/07/06 08:55:54;;;;;;;1.20;1.10;;;21.30;88.00;;;;;;5054378;28;21000;-71
2023/07/06 08:58:31;;;;;;;1.27;1.17;;;21.50;86.40;;;;;;5045596;28;20463;-71
2023/07/06 09:01:06;;;;;;;1.83;1.40;;;21.70;85.50;;;;;;5037437;28;20467;-71
2023/07/06 09:03:44;;;;;;;1.40;1.30;;;21.80;85.60;;;;;;5047123;28;20541;-71
2023/07/06 09:06:18;;;;;;;1.10;1.00;;;22.10;82.90;;;;;;5023476;28;20466;-70
2023/07/06 09:08:49;;;;;;;1.47;1.20;;;22.10;81.60;;;;;;5037502;28;20559;-70
2023/07/06 09:11:15;;;;;;;1.13;1.03;;;22.00;83.30;;;;;;5043957;28;20466;-71
2023/07/06 09:13:54;;;;;;;2.60;1.60;;;22.10;84.50;;;;;;5038570;28;20455;-72
2023/07/06 09:16:21;;;;;;;1.40;1.30;;;22.20;85.10;;;;;;5047494;28;20223;-71
2023/07/06 09:18:47;;;;;;;1.40;1.30;;;22.50;83.00;;;;;;5040523;28;20563;-71
2023/07/06 09:21:16;;;;;;;4.00;1.30;;;22.50;82.40;;;;;;5032604;28;20838;-72
2023/07/06 09:23:45;;;;;;;1.83;1.10;;;22.60;82.80;;;;;;5025360;28;20462;-71
2023/07/06 09:26:31;;;;;;;1.30;1.20;;;22.60;82.20;;;;;;5042620;28;20454;-71
2023/07/06 09:29:18;;;;;;;1.67;1.10;;;22.70;79.40;;;;;;5034084;28;20442;-71
2023/07/06 09:31:44;;;;;;;2.17;1.27;;;23.00;79.60;;;;;;5040663;28;20561;-71
2023/07/06 09:34:28;;;;;;;2.00;1.60;;;23.00;79.60;;;;;;5042913;28;20467;-71
2023/07/06 09:36:54;;;;;;;0.97;0.90;;;23.00;78.20;;;;;;5045961;28;21009;-72
2023/07/06 09:39:21;;;;;;;1.50;1.00;;;23.20;77.60;;;;;;5019803;28;20968;-71
2023/07/06 09:41:47;;;;;;;1.33;1.23;;;23.30;78.00;;;;;;5043052;28;20520;-71
2023/07/06 09:44:16;;;;;;;1.17;1.17;;;23.30;74.70;;;;;;5042150;28;20450;-71
2023/07/06 09:46:43;;;;;;;1.07;1.07;;;23.40;76.90;;;;;;5042667;28;20223;-71
2023/07/06 09:49:19;;;;;;;1.40;1.30;;;23.70;78.00;;;;;;5040387;28;20486;-70
2023/07/06 09:51:54;;;;;;;1.87;1.30;;;23.80;75.00;;;;;;5038257;28;20782;-72
2023/07/06 09:54:39;;;;;;;1.40;1.30;;;23.80;75.80;;;;;;5038686;28;20453;-72
2023/07/06 09:57:11;;;;;;;1.53;1.40;;;23.80;75.60;;;;;;5049539;28;20454;-72
2023/07/06 09:59:43;;;;;;;2.20;1.47;;;23.60;75.20;;;;;;5040982;28;20455;-71
2023/07/06 10:02:41;;;;;;;3.00;1.30;;;23.50;75.40;;;;;;5027456;28;20514;-72
2023/07/06 10:05:37;;;;;;;1.30;1.20;;;23.50;73.70;;;;;;5033369;28;20446;-71
2023/07/06 10:08:11;;;;;;;1.50;1.30;;;23.40;75.30;;;;;;5041222;28;20960;-71
2023/07/06 10:10:52;;;;;;;1.30;1.20;;;24.00;73.00;;;;;;5015988;28;20467;-71
2023/07/06 10:13:38;;;;;;;1.80;1.37;;;24.20;72.90;;;;;;5036868;28;20688;-71
2023/07/06 10:16:32;;;;;;;2.00;1.80;;;24.40;73.60;;;;;;5021896;28;20471;-70
2023/07/06 10:19:11;;;;;;;1.70;1.30;;;24.50;73.80;;;;;;5037446;28;20473;-70
2023/07/06 10:21:48;;;;;;;2.13;1.93;;;24.70;71.20;;;;;;5038286;28;20454;-71
2023/07/06 10:24:16;;;;;;;2.67;1.80;;;24.70;72.30;;;;;;5033988;28;20481;-70
2023/07/06 10:26:48;;;;;;;1.43;1.40;;;25.00;72.50;;;;;;5035785;28;20463;-71
2023/07/06 10:29:21;;;;;;;2.20;1.43;;;25.00;71.10;;;;;;5044540;28;21033;-70
2023/07/06 10:31:57;;;;;;;3.50;1.53;;;25.00;70.90;;;;;;5040831;28;20593;-69
2023/07/06 10:34:42;;;;;;;1.40;1.30;;;24.90;72.20;;;;;;5037974;28;20510;-71
2023/07/06 10:37:12;;;;;;;1.80;1.53;;;25.00;72.80;;;;;;5041595;28;20860;-70
2023/07/06 10:39:44;;;;;;;1.67;1.57;;;25.20;73.30;;;;;;5039815;28;20459;-71
2023/07/06 10:42:25;;;;;;;1.60;1.47;;;25.30;71.40;;;;;;5038565;28;20450;-71
2023/07/06 10:44:58;;;;;;;1.50;1.37;;;25.30;71.80;;;;;;5040933;28;20595;-72
2023/07/06 10:47:34;;;;;;;2.00;1.50;;;25.70;71.50;;;;;;5030998;28;20459;-71
2023/07/06 10:50:08;;;;;;;1.60;1.50;;;26.00;70.20;;;;;;5033806;28;20481;-71
2023/07/06 10:52:40;;;;;;;3.17;1.70;;;25.70;69.10;;;;;;5026979;28;21097;-72
2023/07/06 10:55:19;;;;;;;1.93;1.57;;;25.10;69.10;;;;;;5043789;28;21041;-71
2023/07/06 10:57:59;;;;;;;1.57;1.47;;;25.10;68.60;;;;;;5038802;28;20555;-70
2023/07/06 11:00:35;;;;;;;1.87;1.77;;;24.60;68.70;;;;;;5035964;28;20975;-72
2023/07/06 11:03:02;;;;;;;1.73;1.63;;;24.70;70.00;;;;;;5040261;28;20572;-72
2023/07/06 11:05:32;;;;;;;1.90;1.50;;;25.20;69.60;;;;;;5024664;28;20457;-72
2023/07/06 11:08:05;;;;;;;1.20;1.10;;;25.20;68.60;;;;;;5046679;28;20975;-72
2023/07/06 11:10:37;;;;;;;1.83;1.70;;;25.40;67.60;;;;;;5025405;28;20555;-72
2023/07/06 11:13:06;;;;;;;2.60;1.80;;;25.50;68.90;;;;;;5039663;28;20469;-71
2023/07/06 11:15:56;;;;;;;1.47;1.37;;;25.70;68.20;;;;;;5027744;28;20474;-72
2023/07/06 11:18:21;;;;;;;2.73;1.70;;;26.00;66.20;;;;;;5024830;28;20470;-72
2023/07/06 11:20:54;;;;;;;1.60;1.20;;;26.00;66.10;;;;;;5043416;28;20903;-71
2023/07/06 11:23:34;;;;;;;1.90;1.77;;;26.20;65.70;;;;;;5037342;28;20216;-72
2023/07/06 11:26:07;;;;;;;2.50;1.57;;;26.40;64.80;;;;;;5033675;28;20521;-72
2023/07/06 11:28:33;;;;;;;1.47;1.37;;;26.70;64.20;;;;;;5018968;28;20911;-72
2023/07/06 11:31:12;;;;;;;2.00;1.60;;;26.80;63.30;;;;;;5058977;28;20864;-72
2023/07/06 11:33:50;;;;;;;1.70;1.50;;;26.80;63.90;;;;;;5040442;28;20570;-73
2023/07/06 11:36:27;;;;;;;1.70;1.60;;;26.40;61.50;;;;;;5024803;28;20992;-73
2023/07/06 11:39:08;;;;;;;2.73;1.53;;;26.20;63.50;;;;;;5037202;28;20848;-71
2023/07/06 11:41:53;;;;;;;1.40;1.30;;;26.50;64.40;;;;;;5040605;28;20520;-73
2023/07/06 11:44:40;;;;;;;1.57;1.47;;;26.90;64.70;;;;;;5037032;28;21308;-72
2023/07/06 11:47:22;;;;;;;1.60;1.50;;;27.30;62.60;;;;;;5034244;28;20463;-72
2023/07/06 11:49:59;;;;;;;1.67;1.57;;;27.40;60.40;;;;;;5020781;28;20462;-72
2023/07/06 11:52:30;;;;;;;1.50;1.40;;;27.70;62.20;;;;;;5043306;28;20469;-72
2023/07/06 11:55:14;;;;;;;1.50;1.30;;;27.70;61.70;;;;;;5040207;28;20486;-72
2023/07/06 12:01:33;;;;;;;1.60;1.50;;;27.50;60.30;;;;;;4997390;28;20454;-72
2023/07/06 12:04:02;;;;;;;1.73;1.63;;;27.70;58.80;;;;;;5042151;28;20216;-73
2023/07/06 12:06:30;;;;;;;1.70;1.60;;;27.70;59.60;;;;;;5042154;28;20207;-72
2023/07/06 12:09:00;;;;;;;1.47;1.37;;;27.80;59.70;;;;;;5031584;28;20212;-73
2023/07/06 12:11:26;;;;;;;1.80;1.70;;;28.00;57.80;;;;;;5040470;28;20212;-73
2023/07/06 12:13:55;;;;;;;1.90;1.57;;;27.90;58.00;;;;;;5047683;28;20289;-72
2023/07/06 12:16:25;;;;;;;1.80;1.70;;;28.00;58.50;;;;;;5036571;28;20211;-72
2023/07/06 12:18:58;;;;;;;1.80;1.65;;;28.00;58.90;;;;;;5033756;28;20221;-71
2023/07/06 12:21:38;;;;;;;2.28;2.03;;;28.20;57.60;;;;;;5036928;28;20220;-72
2023/07/06 12:24:10;;;;;;;1.50;1.40;;;28.60;57.90;;;;;;5037114;28;20235;-72
2023/07/06 12:26:44;;;;;;;1.63;1.52;;;28.50;57.40;;;;;;5044124;28;20697;-71
2023/07/06 12:29:14;;;;;;;1.60;1.50;;;28.40;57.00;;;;;;5038377;28;20250;-72
2023/07/06 12:31:40;;;;;;;1.50;1.40;;;28.30;56.70;;;;;;5041834;28;20212;-72
2023/07/06 12:34:06;;;;;;;1.95;1.75;;;28.40;56.90;;;;;;5042566;28;20716;-72
2023/07/06 12:36:36;;;;;;;1.80;1.70;;;28.40;56.90;;;;;;5028396;28;20216;-72
2023/07/06 12:39:05;;;;;;;1.65;1.52;;;28.40;58.00;;;;;;5042641;28;20227;-70
2023/07/06 12:41:37;;;;;;;2.22;1.65;;;28.50;57.20;;;;;;5043993;28;20227;-72
2023/07/06 12:44:05;;;;;;;1.80;1.67;;;28.60;57.10;;;;;;5037306;28;20220;-72
2023/07/06 12:46:33;;;;;;;2.00;1.60;;;28.50;57.20;;;;;;5035055;28;20246;-71
2023/07/06 12:49:02;;;;;;;1.73;1.63;;;28.60;57.90;;;;;;5043038;28;20223;-72
2023/07/06 12:51:29;;;;;;;1.92;1.83;;;28.20;57.80;;;;;;5041165;28;20221;-71
2023/07/06 12:53:57;;;;;;;1.73;1.52;;;28.10;57.90;;;;;;5029357;28;20698;-72
2023/07/06 12:56:25;;;;;;;2.72;1.80;;;28.30;57.90;;;;;;5038658;28;20224;-72
2023/07/06 12:59:01;;;;;;;1.60;1.50;;;28.60;58.10;;;;;;5041788;28;20236;-72
2023/07/06 13:01:45;;;;;;;3.50;1.50;;;28.80;56.50;;;;;;5037588;28;20330;-72
2023/07/06 13:04:13;;;;;;;2.42;2.00;;;29.00;55.70;;;;;;5043780;28;20748;-71
2023/07/06 13:06:52;;;;;;;1.63;1.52;;;28.90;55.00;;;;;;5043727;28;20217;-72
2023/07/06 13:09:18;;;;;;;2.33;1.75;;;28.70;54.50;;;;;;5039223;28;20650;-72